Time;durP1;ratioP1;P1;durP2;ratioP2;P2;SDS_P1;SDS_P2;PMS_P1;PMS_P2;Temp;Humidity;BMP_temperature;BMP_pressure;BME280_temperature;BME280_humidity;BME280_pressure;Samples;Min_cycle;Max_cycle;Signal;HPM_P1;HPM_P2
2023/05/10 00:00:39;;;;;;;3.73;3.20;;;;;;;;;;5013218;28;20187;-76
2023/05/10 00:03:06;;;;;;;8.53;3.37;;;;;;;;;;5030290;28;20187;-76
2023/05/10 00:05:33;;;;;;;5.87;2.77;;;;;;;;;;5030402;28;20274;-76
2023/05/10 00:08:00;;;;;;;7.70;2.80;;;;;;;;;;5029848;28;20203;-75
2023/05/10 00:10:26;;;;;;;8.13;3.47;;;;;;;;;;5030211;28;21070;-76
2023/05/10 00:12:53;;;;;;;4.90;2.87;;;;;;;;;;5030600;28;20843;-76
2023/05/10 00:15:20;;;;;;;7.53;3.30;;;;;;;;;;5028672;28;20916;-76
2023/05/10 00:17:47;;;;;;;7.00;3.10;;;;;;;;;;5030175;28;20615;-76
2023/05/10 00:20:14;;;;;;;6.57;3.30;;;;;;;;;;5012802;28;20192;-75
2023/05/10 00:22:41;;;;;;;6.17;2.90;;;;;;;;;;5012199;28;20269;-76
2023/05/10 00:25:08;;;;;;;4.23;2.63;;;;;;;;;;5029998;28;20191;-75
2023/05/10 00:27:34;;;;;;;7.37;3.23;;;;;;;;;;5030593;28;20243;-75
2023/05/10 00:30:01;;;;;;;4.33;3.00;;;;;;;;;;5029886;28;20256;-76
2023/05/10 00:32:29;;;;;;;4.33;3.00;;;;;;;;;;5008236;28;20291;-75
2023/05/10 00:34:56;;;;;;;5.57;2.70;;;;;;;;;;4992293;28;20216;-75
2023/05/10 00:37:23;;;;;;;3.50;2.87;;;;;;;;;;4975187;28;20216;-75
2023/05/10 00:39:49;;;;;;;5.20;3.10;;;;;;;;;;5014169;28;20190;-78
2023/05/10 00:42:16;;;;;;;6.13;2.87;;;;;;;;;;5012250;28;20215;-77
2023/05/10 00:44:43;;;;;;;5.37;3.10;;;;;;;;;;4995829;28;20570;-77
2023/05/10 00:47:11;;;;;;;7.37;3.20;;;;;;;;;;5029828;28;20195;-77
2023/05/10 00:49:38;;;;;;;5.67;3.43;;;;;;;;;;5011716;28;20200;-77
2023/05/10 00:52:06;;;;;;;6.57;3.07;;;;;;;;;;5010363;28;20187;-77
2023/05/10 00:54:33;;;;;;;5.43;3.03;;;;;;;;;;4976500;28;20216;-77
2023/05/10 00:56:59;;;;;;;8.50;3.10;;;;;;;;;;5010050;28;20591;-77
2023/05/10 00:59:26;;;;;;;6.23;3.10;;;;;;;;;;5009946;28;20193;-76
2023/05/10 01:01:53;;;;;;;6.93;3.17;;;;;;;;;;5009059;28;20291;-77
2023/05/10 01:04:25;;;;;;;5.27;3.10;;;;;;;;;;4992567;28;20196;-77
2023/05/10 01:06:53;;;;;;;7.83;3.63;;;;;;;;;;5010001;28;20614;-76
2023/05/10 01:09:20;;;;;;;5.23;3.10;;;;;;;;;;4993323;28;20192;-77
2023/05/10 01:11:47;;;;;;;5.77;3.33;;;;;;;;;;5011751;28;20187;-77
2023/05/10 01:14:13;;;;;;;10.53;3.10;;;;;;;;;;5012040;28;20261;-77
2023/05/10 01:16:40;;;;;;;8.80;3.20;;;;;;;;;;4995861;28;20721;-77
2023/05/10 01:19:12;;;;;;;7.27;3.77;;;;;;;;;;4995545;28;20199;-77
2023/05/10 01:21:43;;;;;;;6.67;3.47;;;;;;;;;;4995487;28;20190;-77
2023/05/10 01:24:13;;;;;;;6.13;3.00;;;;;;;;;;5011751;28;20227;-77
2023/05/10 01:26:46;;;;;;;5.77;2.83;;;;;;;;;;5014775;28;20215;-76
2023/05/10 01:29:19;;;;;;;7.10;3.17;;;;;;;;;;5009681;28;20267;-77
2023/05/10 01:32:01;;;;;;;6.93;3.20;;;;;;;;;;4992487;28;20188;-77
2023/05/10 01:34:29;;;;;;;6.23;3.30;;;;;;;;;;5007901;28;20216;-75
2023/05/10 01:37:01;;;;;;;6.83;3.30;;;;;;;;;;4992433;28;20943;-77
2023/05/10 01:39:28;;;;;;;5.50;3.00;;;;;;;;;;4993025;28;20222;-76
2023/05/10 01:41:59;;;;;;;8.70;3.33;;;;;;;;;;5029313;28;20188;-77
2023/05/10 02:16:23;;;;;;;11.20;3.60;;;;;;;;;;5026312;28;20202;-75
2023/05/10 02:18:51;;;;;;;5.67;3.60;;;;;;;;;;5014918;28;20489;-77
2023/05/10 02:21:20;;;;;;;10.03;3.50;;;;;;;;;;4998150;28;20438;-76
2023/05/10 02:23:48;;;;;;;7.63;3.80;;;;;;;;;;4998031;28;20490;-77
2023/05/10 02:26:14;;;;;;;7.40;3.30;;;;;;;;;;4998246;28;20278;-76
2023/05/10 02:28:41;;;;;;;6.70;3.50;;;;;;;;;;5014419;28;20864;-77
2023/05/10 02:31:10;;;;;;;4.93;3.30;;;;;;;;;;5013656;28;20438;-76
2023/05/10 02:33:41;;;;;;;7.70;3.60;;;;;;;;;;5010150;28;20200;-75
2023/05/10 02:36:08;;;;;;;9.13;3.90;;;;;;;;;;4994533;28;20442;-75
2023/05/10 02:38:35;;;;;;;12.03;3.80;;;;;;;;;;5010338;28;20567;-73
2023/05/10 02:41:03;;;;;;;9.43;3.57;;;;;;;;;;4991934;28;20500;-75
2023/05/10 02:43:30;;;;;;;8.77;4.30;;;;;;;;;;5013810;28;20430;-75
2023/05/10 02:45:57;;;;;;;7.70;4.07;;;;;;;;;;5013879;28;20442;-73
2023/05/10 02:48:25;;;;;;;9.23;4.17;;;;;;;;;;4997984;28;20473;-73
2023/05/10 02:50:52;;;;;;;11.13;4.23;;;;;;;;;;5030430;28;20446;-73
2023/05/10 02:53:21;;;;;;;9.13;4.60;;;;;;;;;;4997310;28;20195;-73
2023/05/10 02:55:50;;;;;;;9.50;4.27;;;;;;;;;;5030436;28;20529;-73
2023/05/10 02:58:19;;;;;;;9.50;4.37;;;;;;;;;;4997885;28;20439;-74
2023/05/10 03:00:46;;;;;;;8.70;4.23;;;;;;;;;;5030757;28;20438;-73
2023/05/10 03:03:13;;;;;;;8.03;3.70;;;;;;;;;;5012904;28;20443;-74
2023/05/10 03:05:41;;;;;;;10.43;4.40;;;;;;;;;;5023688;28;20461;-72
2023/05/10 03:08:08;;;;;;;7.87;4.07;;;;;;;;;;5024183;28;20967;-74
2023/05/10 03:10:38;;;;;;;5.97;3.97;;;;;;;;;;4993988;28;20435;-65
2023/05/10 03:13:13;;;;;;;9.20;4.17;;;;;;;;;;4983097;28;20458;-65
2023/05/10 03:16:02;;;;;;;7.30;4.50;;;;;;;;;;5006534;28;20949;-66
2023/05/10 03:18:32;;;;;;;7.27;4.30;;;;;;;;;;5007394;28;20433;-65
2023/05/10 03:21:06;;;;;;;7.97;4.13;;;;;;;;;;4994325;28;20461;-66
2023/05/10 03:23:35;;;;;;;7.50;4.37;;;;;;;;;;4997216;28;20565;-65
2023/05/10 03:26:01;;;;;;;8.70;4.37;;;;;;;;;;4988160;28;20477;-64
2023/05/10 03:28:29;;;;;;;6.70;4.00;;;;;;;;;;4974264;28;20435;-65
2023/05/10 03:30:56;;;;;;;7.27;4.50;;;;;;;;;;4974198;28;20479;-64
2023/05/10 03:33:23;;;;;;;6.20;4.07;;;;;;;;;;5007800;28;20443;-65
2023/05/10 03:35:50;;;;;;;7.47;4.30;;;;;;;;;;4989952;28;20479;-64
2023/05/10 03:38:16;;;;;;;11.43;4.83;;;;;;;;;;4987031;28;20478;-66
2023/05/10 03:40:43;;;;;;;11.90;4.67;;;;;;;;;;4992753;28;20473;-65
2023/05/10 03:43:10;;;;;;;10.77;4.60;;;;;;;;;;4973458;28;20467;-66
2023/05/10 03:45:36;;;;;;;9.47;4.37;;;;;;;;;;5007336;28;20452;-65
2023/05/10 03:48:04;;;;;;;10.57;4.80;;;;;;;;;;4990268;28;20795;-65
2023/05/10 03:50:30;;;;;;;9.83;4.60;;;;;;;;;;4990502;28;20478;-66
2023/05/10 03:52:57;;;;;;;11.70;4.80;;;;;;;;;;5007906;28;20446;-66
2023/05/10 03:55:26;;;;;;;8.73;5.03;;;;;;;;;;4989938;28;20490;-67
2023/05/10 03:57:55;;;;;;;9.43;4.77;;;;;;;;;;4974698;28;20950;-67
2023/05/10 04:00:22;;;;;;;10.30;5.13;;;;;;;;;;4989403;28;20486;-68
2023/05/10 04:02:54;;;;;;;7.63;5.00;;;;;;;;;;4990057;28;20485;-67
2023/05/10 04:05:22;;;;;;;8.17;4.97;;;;;;;;;;4989499;28;20206;-68
2023/05/10 04:07:51;;;;;;;9.63;4.67;;;;;;;;;;4974162;28;20207;-65
2023/05/10 04:10:17;;;;;;;10.03;4.77;;;;;;;;;;4989698;28;20207;-67
2023/05/10 04:12:44;;;;;;;8.47;5.00;;;;;;;;;;5005172;28;20327;-67
2023/05/10 04:15:11;;;;;;;7.47;4.87;;;;;;;;;;4989307;28;20226;-68
2023/05/10 04:17:38;;;;;;;8.73;5.37;;;;;;;;;;5006626;28;20223;-67
2023/05/10 04:20:05;;;;;;;10.60;5.87;;;;;;;;;;5007511;28;20254;-67
2023/05/10 04:22:32;;;;;;;8.07;5.00;;;;;;;;;;5007365;28;20245;-68
2023/05/10 04:24:59;;;;;;;12.03;5.23;;;;;;;;;;5020513;28;20279;-67
2023/05/10 04:27:26;;;;;;;9.70;5.07;;;;;;;;;;5004655;28;21118;-68
2023/05/10 04:29:52;;;;;;;14.37;5.43;;;;;;;;;;5005823;28;20197;-68
2023/05/10 04:32:20;;;;;;;13.17;5.40;;;;;;;;;;5002037;28;20979;-67
2023/05/10 04:34:47;;;;;;;10.77;5.20;;;;;;;;;;5006801;28;20215;-65
2023/05/10 04:37:13;;;;;;;11.77;4.70;;;;;;;;;;4990971;28;20572;-66
2023/05/10 04:39:40;;;;;;;13.43;4.57;;;;;;;;;;5007532;28;20686;-66
2023/05/10 04:42:08;;;;;;;10.53;5.07;;;;;;;;;;5009721;28;20270;-65
2023/05/10 04:44:35;;;;;;;10.30;4.50;;;;;;;;;;5008862;28;20299;-69
2023/05/10 04:47:02;;;;;;;8.27;4.43;;;;;;;;;;5008988;28;20204;-68
2023/05/10 04:49:29;;;;;;;9.00;3.90;;;;;;;;;;4989440;28;20579;-68
2023/05/10 04:51:56;;;;;;;7.10;3.80;;;;;;;;;;5008336;28;20762;-69
2023/05/10 04:54:23;;;;;;;6.33;3.93;;;;;;;;;;4993253;28;20191;-69
2023/05/10 04:56:50;;;;;;;8.07;4.03;;;;;;;;;;5003341;28;20721;-69
2023/05/10 04:59:17;;;;;;;9.73;4.00;;;;;;;;;;4974763;28;20188;-66
2023/05/10 05:01:44;;;;;;;8.10;4.20;;;;;;;;;;5022684;28;20236;-67
2023/05/10 05:04:11;;;;;;;9.53;3.90;;;;;;;;;;5006790;28;20525;-67
2023/05/10 05:06:38;;;;;;;8.23;4.17;;;;;;;;;;5006989;28;20200;-68
2023/05/10 05:09:06;;;;;;;6.97;3.90;;;;;;;;;;5007151;28;20250;-68
2023/05/10 05:11:32;;;;;;;6.80;3.67;;;;;;;;;;5002210;28;20306;-66
2023/05/10 05:13:59;;;;;;;6.90;4.00;;;;;;;;;;4983828;28;20198;-66
2023/05/10 05:16:26;;;;;;;5.13;3.67;;;;;;;;;;5005257;28;20277;-66
2023/05/10 05:18:53;;;;;;;6.47;4.00;;;;;;;;;;5006451;28;20608;-66
2023/05/10 05:21:21;;;;;;;8.80;3.63;;;;;;;;;;5005752;28;20682;-66
2023/05/10 05:23:48;;;;;;;7.50;3.60;;;;;;;;;;5020935;28;20239;-65
2023/05/10 05:26:14;;;;;;;4.27;3.17;;;;;;;;;;5029192;28;20195;-65
2023/05/10 05:28:41;;;;;;;12.30;3.87;;;;;;;;;;5030085;28;20198;-65
2023/05/10 05:31:09;;;;;;;6.50;3.93;;;;;;;;;;5023514;28;20270;-67
2023/05/10 05:33:38;;;;;;;6.23;3.80;;;;;;;;;;5030263;28;20233;-64
2023/05/10 05:36:05;;;;;;;8.50;3.80;;;;;;;;;;5027203;28;20869;-67
2023/05/10 05:38:32;;;;;;;7.77;3.20;;;;;;;;;;4991301;28;20338;-68
2023/05/10 05:41:00;;;;;;;4.20;3.43;;;;;;;;;;5027450;28;20231;-67
2023/05/10 05:43:27;;;;;;;7.60;3.60;;;;;;;;;;5029211;28;20199;-66
2023/05/10 05:45:57;;;;;;;6.63;3.97;;;;;;;;;;5030134;28;20238;-67
2023/05/10 05:48:24;;;;;;;9.33;4.27;;;;;;;;;;5030457;28;20191;-67
2023/05/10 05:50:54;;;;;;;6.70;3.80;;;;;;;;;;5024660;28;20286;-65
2023/05/10 05:53:21;;;;;;;8.77;4.03;;;;;;;;;;5039824;28;20206;-66
2023/05/10 05:55:51;;;;;;;10.07;4.10;;;;;;;;;;5028966;28;20223;-66
2023/05/10 05:58:17;;;;;;;7.90;3.30;;;;;;;;;;5010018;28;20172;-66
2023/05/10 06:00:44;;;;;;;5.00;3.50;;;;;;;;;;5029936;28;20189;-65
2023/05/10 06:03:11;;;;;;;8.57;4.20;;;;;;;;;;5029361;28;20195;-64
2023/05/10 06:05:38;;;;;;;12.30;3.77;;;;;;;;;;5027494;28;20516;-66
2023/05/10 06:08:05;;;;;;;8.20;3.63;;;;;;;;;;5028538;28;20266;-66
2023/05/10 06:10:32;;;;;;;8.30;3.73;;;;;;;;;;5028750;28;20289;-66
2023/05/10 06:12:59;;;;;;;12.03;3.53;;;;;;;;;;5029693;28;20207;-66
2023/05/10 06:15:26;;;;;;;6.73;3.57;;;;;;;;;;5011556;28;20222;-67
2023/05/10 06:17:53;;;;;;;7.70;3.97;;;;;;;;;;5029887;28;20194;-65
2023/05/10 06:20:21;;;;;;;8.87;4.10;;;;;;;;;;5028516;28;20999;-66
2023/05/10 06:22:49;;;;;;;7.33;4.27;;;;;;;;;;5029413;28;20231;-65
2023/05/10 06:25:17;;;;;;;7.07;3.77;;;;;;;;;;5028727;28;20226;-65
2023/05/10 06:27:45;;;;;;;6.00;3.30;;;;;;;;;;5029020;28;20826;-67
2023/05/10 06:30:18;;;;;;;7.23;3.90;;;;;;;;;;5029074;28;20664;-66
2023/05/10 06:32:45;;;;;;;9.00;4.20;;;;;;;;;;5038808;28;20218;-65
2023/05/10 06:35:12;;;;;;;7.70;3.47;;;;;;;;;;5027270;28;20288;-66
2023/05/10 06:37:39;;;;;;;5.57;3.87;;;;;;;;;;5027866;28;20199;-64
2023/05/10 06:40:06;;;;;;;9.60;3.87;;;;;;;;;;5029458;28;20259;-67
2023/05/10 06:42:33;;;;;;;6.93;3.83;;;;;;;;;;5014118;28;20187;-67
2023/05/10 06:45:01;;;;;;;7.10;3.90;;;;;;;;;;5013609;28;20200;-66
2023/05/10 06:47:27;;;;;;;7.53;3.97;;;;;;;;;;5030974;28;20726;-66
2023/05/10 06:49:54;;;;;;;26.83;4.30;;;;;;;;;;5030890;28;20187;-66
2023/05/10 06:52:21;;;;;;;11.17;3.80;;;;;;;;;;5030948;28;20345;-67
2023/05/10 06:54:48;;;;;;;7.33;3.50;;;;;;;;;;5031174;28;20176;-67
2023/05/10 06:57:15;;;;;;;7.27;3.60;;;;;;;;;;5030825;28;20223;-67
2023/05/10 06:59:57;;;;;;;6.17;3.63;;;;;;;;;;5030056;28;20206;-67
2023/05/10 07:02:24;;;;;;;7.20;4.00;;;;;;;;;;5014336;28;20198;-66
2023/05/10 07:04:51;;;;;;;9.90;3.67;;;;;;;;;;5032521;28;20279;-67
2023/05/10 07:07:18;;;;;;;7.03;3.13;;;;;;;;;;5031271;28;20940;-67
2023/05/10 07:09:45;;;;;;;11.10;3.97;;;;;;;;;;5031104;28;20191;-67
2023/05/10 07:12:12;;;;;;;5.97;3.20;;;;;;;;;;5013148;28;20238;-66
2023/05/10 07:14:41;;;;;;;8.43;3.47;;;;;;;;;;5030594;28;20186;-66
2023/05/10 07:17:08;;;;;;;7.87;3.67;;;;;;;;;;5012404;28;20211;-66
2023/05/10 07:19:35;;;;;;;8.40;3.13;;;;;;;;;;5013197;28;20195;-66
2023/05/10 07:22:01;;;;;;;4.83;3.37;;;;;;;;;;5029984;28;20562;-67
2023/05/10 07:24:31;;;;;;;6.23;3.47;;;;;;;;;;5030778;28;20183;-66
2023/05/10 07:26:57;;;;;;;5.17;3.03;;;;;;;;;;5030647;28;20552;-66
2023/05/10 07:29:24;;;;;;;4.20;2.90;;;;;;;;;;5030407;28;21022;-66
2023/05/10 07:31:51;;;;;;;6.90;2.57;;;;;;;;;;5030310;28;20226;-66
2023/05/10 07:34:18;;;;;;;6.87;3.03;;;;;;;;;;5030627;28;20200;-66
2023/05/10 07:36:44;;;;;;;7.17;3.00;;;;;;;;;;5030383;28;20214;-66
2023/05/10 07:39:12;;;;;;;7.87;2.90;;;;;;;;;;5030281;28;20196;-65
2023/05/10 07:41:50;;;;;;;7.40;3.10;;;;;;;;;;5030227;28;20249;-65
2023/05/10 07:44:18;;;;;;;7.63;2.47;;;;;;;;;;5012542;28;20198;-66
2023/05/10 07:46:45;;;;;;;6.47;2.67;;;;;;;;;;5029682;28;20186;-66
2023/05/10 07:49:12;;;;;;;3.63;2.83;;;;;;;;;;5030011;28;20179;-66
2023/05/10 07:51:39;;;;;;;6.97;2.97;;;;;;;;;;5030064;28;20191;-66
2023/05/10 07:54:06;;;;;;;48.10;5.47;;;;;;;;;;5030303;28;20184;-66
2023/05/10 07:56:33;;;;;;;8.90;2.60;;;;;;;;;;5029950;28;20211;-66
2023/05/10 07:59:00;;;;;;;8.40;2.90;;;;;;;;;;5029711;28;20222;-67
2023/05/10 08:01:29;;;;;;;8.23;2.63;;;;;;;;;;5029781;28;20186;-66
2023/05/10 08:03:56;;;;;;;8.27;2.80;;;;;;;;;;5030100;28;20659;-66
2023/05/10 08:06:23;;;;;;;6.30;2.70;;;;;;;;;;5029771;28;20246;-66
2023/05/10 08:08:50;;;;;;;10.83;2.90;;;;;;;;;;5029556;28;20195;-66
2023/05/10 08:11:17;;;;;;;10.07;2.63;;;;;;;;;;5012235;28;20611;-66
2023/05/10 08:13:44;;;;;;;15.07;3.10;;;;;;;;;;5029695;28;20206;-65
2023/05/10 08:16:11;;;;;;;7.37;2.57;;;;;;;;;;5029324;28;20206;-65
2023/05/10 08:18:38;;;;;;;14.83;2.80;;;;;;;;;;5012520;28;20569;-66
2023/05/10 08:21:05;;;;;;;10.57;2.80;;;;;;;;;;5029638;28;20250;-66
2023/05/10 08:23:31;;;;;;;4.90;2.37;;;;;;;;;;5029057;28;20219;-66
2023/05/10 08:25:58;;;;;;;12.37;2.53;;;;;;;;;;5029427;28;20326;-66
2023/05/10 08:28:25;;;;;;;15.63;3.67;;;;;;;;;;5029264;28;20721;-66
2023/05/10 08:30:52;;;;;;;10.27;2.90;;;;;;;;;;5029783;28;20191;-66
2023/05/10 08:33:19;;;;;;;11.57;2.80;;;;;;;;;;5011800;28;20183;-66
2023/05/10 08:35:48;;;;;;;19.57;3.03;;;;;;;;;;5029332;28;20199;-66
2023/05/10 08:38:15;;;;;;;5.63;2.20;;;;;;;;;;5029034;28;20187;-66
2023/05/10 08:40:42;;;;;;;59.83;5.63;;;;;;;;;;5029191;28;20286;-65
2023/05/10 08:43:10;;;;;;;12.43;2.87;;;;;;;;;;5029074;28;20412;-66
2023/05/10 08:45:37;;;;;;;21.27;3.47;;;;;;;;;;5029515;28;20222;-66
2023/05/10 08:48:04;;;;;;;7.20;2.50;;;;;;;;;;5011538;28;20651;-67
2023/05/10 08:50:31;;;;;;;6.60;2.70;;;;;;;;;;5029229;28;20703;-66
2023/05/10 08:52:59;;;;;;;47.47;6.40;;;;;;;;;;5011509;28;20997;-65
2023/05/10 08:55:25;;;;;;;11.70;3.10;;;;;;;;;;5029150;28;20274;-66
2023/05/10 08:57:52;;;;;;;13.27;2.83;;;;;;;;;;5029393;28;20283;-67
2023/05/10 09:00:19;;;;;;;9.40;2.27;;;;;;;;;;5032317;28;20175;-66
2023/05/10 09:02:46;;;;;;;12.37;2.90;;;;;;;;;;5015702;28;20895;-65
2023/05/10 09:05:15;;;;;;;10.13;2.50;;;;;;;;;;5015682;28;20211;-66
2023/05/10 09:07:42;;;;;;;6.20;2.30;;;;;;;;;;5032885;28;20279;-66
2023/05/10 09:10:09;;;;;;;7.90;2.67;;;;;;;;;;5032984;28;20202;-67
2023/05/10 09:12:36;;;;;;;6.67;2.33;;;;;;;;;;5033336;28;20328;-66
2023/05/10 09:15:03;;;;;;;9.83;3.37;;;;;;;;;;5032702;28;20658;-66
2023/05/10 09:17:31;;;;;;;7.97;2.67;;;;;;;;;;5012863;28;20211;-66
2023/05/10 09:20:01;;;;;;;11.80;2.67;;;;;;;;;;4995909;28;20242;-65
2023/05/10 09:22:28;;;;;;;16.47;2.97;;;;;;;;;;4995303;28;20255;-65
2023/05/10 09:25:05;;;;;;;9.30;2.20;;;;;;;;;;5013553;28;20192;-66
2023/05/10 09:27:32;;;;;;;7.73;2.60;;;;;;;;;;5013323;28;20191;-66
2023/05/10 09:29:58;;;;;;;3.40;2.40;;;;;;;;;;5012947;28;20192;-66
2023/05/10 09:32:38;;;;;;;6.87;2.23;;;;;;;;;;5013001;28;20212;-66
2023/05/10 09:35:14;;;;;;;6.40;2.40;;;;;;;;;;4995527;28;20567;-67
2023/05/10 09:37:42;;;;;;;6.63;2.20;;;;;;;;;;4994826;28;20806;-66
2023/05/10 09:40:13;;;;;;;6.07;1.90;;;;;;;;;;5013035;28;20196;-66
2023/05/10 09:42:40;;;;;;;8.30;2.10;;;;;;;;;;5013101;28;20283;-66
2023/05/10 09:45:07;;;;;;;7.93;2.30;;;;;;;;;;5012875;28;20191;-67
2023/05/10 09:47:34;;;;;;;7.80;2.30;;;;;;;;;;5012706;28;20586;-65
2023/05/10 09:50:04;;;;;;;5.47;2.60;;;;;;;;;;5012537;28;20192;-66
2023/05/10 09:52:54;;;;;;;6.83;2.23;;;;;;;;;;4995422;28;20185;-66
2023/05/10 09:55:21;;;;;;;10.17;2.37;;;;;;;;;;5012252;28;20196;-66
2023/05/10 09:57:48;;;;;;;5.97;2.03;;;;;;;;;;5012449;28;20223;-66
2023/05/10 10:00:18;;;;;;;7.67;2.27;;;;;;;;;;5012477;28;20192;-65
2023/05/10 10:02:46;;;;;;;5.80;2.10;;;;;;;;;;5012548;28;20188;-66
2023/05/10 10:05:13;;;;;;;11.30;2.83;;;;;;;;;;5012332;28;20196;-66
2023/05/10 10:07:40;;;;;;;11.27;2.53;;;;;;;;;;5012525;28;20196;-66
2023/05/10 10:10:11;;;;;;;7.87;2.10;;;;;;;;;;5011778;28;20199;-65
2023/05/10 10:12:38;;;;;;;8.47;2.60;;;;;;;;;;4995790;28;20200;-65
2023/05/10 10:15:06;;;;;;;7.40;2.20;;;;;;;;;;5012348;28;20192;-66
2023/05/10 10:17:34;;;;;;;5.60;2.17;;;;;;;;;;5031681;28;20215;-66
2023/05/10 10:20:02;;;;;;;4.37;2.30;;;;;;;;;;5014046;28;20219;-66
2023/05/10 10:22:29;;;;;;;8.27;2.50;;;;;;;;;;5031469;28;20227;-66
2023/05/10 10:24:55;;;;;;;17.37;3.37;;;;;;;;;;5031990;28;20195;-66
2023/05/10 10:27:24;;;;;;;11.97;2.70;;;;;;;;;;5031808;28;20183;-66
2023/05/10 10:29:51;;;;;;;5.47;2.13;;;;;;;;;;5013862;28;20191;-66
2023/05/10 10:32:30;;;;;;;5.43;2.00;;;;;;;;;;5031682;28;20298;-67
2023/05/10 10:34:57;;;;;;;7.00;2.40;;;;;;;;;;5014353;28;20279;-67
2023/05/10 10:37:40;;;;;;;5.70;2.10;;;;;;;;;;5014034;28;20211;-66
2023/05/10 10:40:22;;;;;;;9.63;2.77;;;;;;;;;;5031023;28;20198;-66
2023/05/10 10:42:49;;;;;;;11.67;2.83;;;;;;;;;;5031848;28;20198;-66
2023/05/10 10:45:16;;;;;;;10.97;3.10;;;;;;;;;;5031379;28;20183;-65
2023/05/10 10:47:44;;;;;;;7.13;2.30;;;;;;;;;;5031314;28;20199;-65
2023/05/10 10:50:15;;;;;;;6.67;2.20;;;;;;;;;;4997663;28;20179;-66
2023/05/10 10:52:42;;;;;;;3.80;2.13;;;;;;;;;;5030885;28;20724;-66
2023/05/10 10:55:09;;;;;;;7.93;2.40;;;;;;;;;;5031063;28;20196;-66
2023/05/10 10:57:42;;;;;;;8.87;2.47;;;;;;;;;;5013668;28;20293;-67
2023/05/10 11:00:22;;;;;;;4.00;2.17;;;;;;;;;;5013562;28;20183;-67
2023/05/10 11:02:59;;;;;;;7.00;2.37;;;;;;;;;;5030911;28;20252;-67
2023/05/10 11:05:29;;;;;;;8.77;2.40;;;;;;;;;;5030999;28;20191;-67
2023/05/10 11:07:56;;;;;;;8.63;2.50;;;;;;;;;;5030869;28;20238;-67
2023/05/10 11:10:23;;;;;;;6.63;2.23;;;;;;;;;;5030822;28;20585;-66
2023/05/10 11:12:53;;;;;;;6.43;2.50;;;;;;;;;;5031056;28;20641;-67
2023/05/10 11:15:28;;;;;;;8.73;2.13;;;;;;;;;;5027917;28;20184;-66
2023/05/10 11:17:55;;;;;;;9.57;2.50;;;;;;;;;;5010795;28;20208;-66
2023/05/10 11:20:24;;;;;;;8.73;2.23;;;;;;;;;;5010903;28;20275;-66
2023/05/10 11:22:51;;;;;;;10.30;2.73;;;;;;;;;;5009887;28;20223;-67
2023/05/10 11:25:18;;;;;;;7.37;2.30;;;;;;;;;;5010919;28;20196;-67
2023/05/10 11:27:46;;;;;;;5.67;2.30;;;;;;;;;;5011132;28;20254;-67
2023/05/10 11:30:13;;;;;;;9.37;2.60;;;;;;;;;;5025730;28;20555;-66
2023/05/10 11:32:40;;;;;;;6.10;2.47;;;;;;;;;;4993345;28;20215;-67
2023/05/10 11:35:10;;;;;;;10.97;2.03;;;;;;;;;;5010548;28;20230;-65
2023/05/10 11:37:40;;;;;;;13.23;2.80;;;;;;;;;;5010486;28;20307;-66
2023/05/10 11:40:09;;;;;;;7.60;2.40;;;;;;;;;;5010534;28;20595;-66
2023/05/10 11:42:37;;;;;;;4.47;2.00;;;;;;;;;;5010869;28;20188;-65
2023/05/10 11:45:03;;;;;;;12.17;2.60;;;;;;;;;;4992937;28;20195;-66
2023/05/10 11:47:35;;;;;;;7.33;2.17;;;;;;;;;;5010524;28;20672;-66
2023/05/10 11:50:02;;;;;;;7.17;2.40;;;;;;;;;;5010170;28;20267;-66
2023/05/10 11:52:29;;;;;;;7.57;2.50;;;;;;;;;;4992870;28;20184;-66
2023/05/10 11:54:55;;;;;;;5.73;2.50;;;;;;;;;;5010612;28;20199;-66
2023/05/10 11:57:25;;;;;;;6.43;2.50;;;;;;;;;;5010246;28;20207;-66
2023/05/10 11:59:58;;;;;;;5.17;2.27;;;;;;;;;;5010252;28;20192;-67
2023/05/10 12:02:25;;;;;;;6.57;2.50;;;;;;;;;;5010383;28;20275;-65
2023/05/10 12:04:51;;;;;;;5.97;2.30;;;;;;;;;;4992706;28;20180;-66
2023/05/10 12:07:18;;;;;;;9.70;2.80;;;;;;;;;;5009980;28;20219;-66
2023/05/10 12:10:02;;;;;;;6.83;2.40;;;;;;;;;;5010334;28;20188;-67
2023/05/10 12:12:38;;;;;;;9.30;2.60;;;;;;;;;;5010111;28;20203;-66
2023/05/10 12:15:06;;;;;;;7.07;2.67;;;;;;;;;;4992946;28;20203;-67
2023/05/10 12:17:32;;;;;;;6.23;2.33;;;;;;;;;;5029734;28;20678;-66
2023/05/10 12:20:13;;;;;;;14.90;2.47;;;;;;;;;;5029385;28;20184;-67
2023/05/10 12:22:40;;;;;;;6.10;2.20;;;;;;;;;;5012028;28;20229;-67
2023/05/10 12:25:08;;;;;;;5.07;2.10;;;;;;;;;;5029443;28;20226;-66
2023/05/10 12:27:34;;;;;;;9.70;2.60;;;;;;;;;;5029959;28;20282;-67
2023/05/10 12:30:02;;;;;;;8.67;2.37;;;;;;;;;;5029247;28;20184;-65
2023/05/10 12:32:43;;;;;;;7.93;2.37;;;;;;;;;;5012128;28;20562;-66
2023/05/10 12:35:10;;;;;;;6.83;2.30;;;;;;;;;;5011606;28;20191;-66
2023/05/10 12:37:38;;;;;;;6.03;2.00;;;;;;;;;;5029186;28;20218;-67
2023/05/10 12:40:06;;;;;;;10.33;2.50;;;;;;;;;;5029381;28;20215;-65
2023/05/10 12:42:33;;;;;;;6.80;2.27;;;;;;;;;;5029601;28;20191;-66
2023/05/10 12:45:00;;;;;;;21.13;3.67;;;;;;;;;;5029007;28;20603;-66
2023/05/10 12:47:26;;;;;;;8.47;2.37;;;;;;;;;;5029287;28;20254;-67
2023/05/10 12:49:53;;;;;;;12.40;2.40;;;;;;;;;;5028990;28;20198;-66
2023/05/10 12:52:20;;;;;;;4.70;2.20;;;;;;;;;;5028921;28;20191;-66
2023/05/10 12:54:46;;;;;;;7.53;2.60;;;;;;;;;;5029345;28;20206;-67
2023/05/10 12:57:14;;;;;;;12.23;2.57;;;;;;;;;;5029246;28;20238;-65
2023/05/10 12:59:40;;;;;;;5.13;2.03;;;;;;;;;;5029017;28;20295;-66
2023/05/10 13:02:08;;;;;;;5.47;2.40;;;;;;;;;;5011642;28;20195;-66
2023/05/10 13:04:48;;;;;;;8.23;2.30;;;;;;;;;;5029203;28;20230;-67
2023/05/10 13:07:17;;;;;;;10.03;2.50;;;;;;;;;;5029189;28;20535;-66
2023/05/10 13:09:44;;;;;;;10.10;2.53;;;;;;;;;;5029209;28;20267;-66
2023/05/10 13:12:14;;;;;;;7.47;2.20;;;;;;;;;;5029017;28;20190;-67
2023/05/10 13:14:42;;;;;;;5.67;2.20;;;;;;;;;;5029049;28;20554;-67
2023/05/10 13:17:12;;;;;;;4.27;2.60;;;;;;;;;;5028818;28;20574;-67
2023/05/10 13:19:41;;;;;;;5.33;2.27;;;;;;;;;;5028833;28;20219;-67
2023/05/10 13:22:08;;;;;;;8.13;3.10;;;;;;;;;;5026390;28;20191;-67
2023/05/10 13:24:39;;;;;;;9.80;2.57;;;;;;;;;;5030084;28;20199;-67
2023/05/10 13:27:06;;;;;;;8.67;2.60;;;;;;;;;;5030763;28;20302;-67
2023/05/10 13:29:35;;;;;;;8.23;2.33;;;;;;;;;;5030870;28;20268;-68
2023/05/10 13:32:01;;;;;;;10.33;2.70;;;;;;;;;;5030809;28;20200;-67
2023/05/10 13:34:29;;;;;;;10.23;2.40;;;;;;;;;;4996705;28;20206;-68
2023/05/10 13:36:56;;;;;;;6.27;2.30;;;;;;;;;;5026824;28;20622;-68
2023/05/10 13:39:25;;;;;;;6.73;2.30;;;;;;;;;;5029957;28;20201;-68
2023/05/10 13:41:51;;;;;;;5.87;2.20;;;;;;;;;;5030769;28;20206;-67
2023/05/10 13:44:20;;;;;;;11.13;2.40;;;;;;;;;;5030800;28;20191;-67
2023/05/10 13:46:49;;;;;;;4.77;2.47;;;;;;;;;;5034402;28;20192;-67
2023/05/10 13:49:16;;;;;;;8.47;2.50;;;;;;;;;;5034214;28;20206;-67
2023/05/10 13:51:43;;;;;;;7.27;2.50;;;;;;;;;;5033837;28;20190;-68
2023/05/10 13:54:11;;;;;;;4.87;2.43;;;;;;;;;;5034552;28;20249;-68
2023/05/10 13:56:40;;;;;;;11.17;2.93;;;;;;;;;;5034042;28;20184;-68
2023/05/10 13:59:07;;;;;;;7.83;2.20;;;;;;;;;;5033842;28;20632;-67
2023/05/10 14:01:35;;;;;;;11.10;2.40;;;;;;;;;;5033325;28;20187;-68
2023/05/10 14:04:09;;;;;;;6.87;2.50;;;;;;;;;;5033877;28;20647;-67
2023/05/10 14:06:37;;;;;;;2.87;2.20;;;;;;;;;;5033373;28;20256;-67
2023/05/10 14:09:04;;;;;;;9.03;2.50;;;;;;;;;;5033778;28;20559;-67
2023/05/10 14:11:30;;;;;;;9.13;2.43;;;;;;;;;;5033112;28;20226;-68
2023/05/10 14:13:57;;;;;;;6.10;2.20;;;;;;;;;;5033405;28;20187;-68
2023/05/10 14:16:24;;;;;;;9.63;2.33;;;;;;;;;;5015695;28;20225;-67
2023/05/10 14:18:50;;;;;;;5.93;2.20;;;;;;;;;;5033736;28;20561;-67
2023/05/10 14:21:18;;;;;;;4.20;2.50;;;;;;;;;;5033755;28;20282;-68
2023/05/10 14:23:45;;;;;;;6.17;2.50;;;;;;;;;;5033055;28;20285;-67
2023/05/10 14:26:12;;;;;;;9.30;2.10;;;;;;;;;;5033122;28;20198;-66
2023/05/10 14:28:38;;;;;;;6.90;2.30;;;;;;;;;;5033066;28;20195;-67
2023/05/10 14:31:06;;;;;;;8.13;2.40;;;;;;;;;;5033699;28;20192;-67
2023/05/10 14:33:33;;;;;;;9.37;2.30;;;;;;;;;;5015886;28;20246;-67
2023/05/10 14:36:00;;;;;;;11.33;2.10;;;;;;;;;;5015894;28;20878;-67
2023/05/10 14:38:27;;;;;;;7.27;2.50;;;;;;;;;;5033368;28;20210;-68
2023/05/10 14:40:53;;;;;;;7.00;2.27;;;;;;;;;;5032878;28;20195;-67
2023/05/10 14:43:20;;;;;;;4.83;2.00;;;;;;;;;;5033494;28;20693;-68
2023/05/10 14:45:47;;;;;;;4.70;2.13;;;;;;;;;;5033320;28;20200;-67
2023/05/10 14:48:17;;;;;;;6.93;2.23;;;;;;;;;;5015271;28;20218;-67
2023/05/10 14:50:45;;;;;;;9.67;2.97;;;;;;;;;;5032601;28;20589;-68
2023/05/10 14:53:11;;;;;;;6.67;2.20;;;;;;;;;;5032696;28;20234;-67
2023/05/10 14:55:38;;;;;;;6.43;2.20;;;;;;;;;;5032821;28;20863;-67
2023/05/10 14:58:05;;;;;;;5.53;2.30;;;;;;;;;;5030290;28;20214;-67
2023/05/10 15:00:32;;;;;;;9.63;2.50;;;;;;;;;;5031416;28;20200;-67
2023/05/10 15:02:59;;;;;;;6.90;2.10;;;;;;;;;;5030917;28;20274;-66
2023/05/10 15:05:27;;;;;;;6.57;2.30;;;;;;;;;;5030758;28;20187;-67
2023/05/10 15:07:54;;;;;;;4.97;2.37;;;;;;;;;;5030732;28;20184;-67
2023/05/10 15:10:22;;;;;;;7.93;2.27;;;;;;;;;;5030699;28;20323;-67
2023/05/10 15:12:49;;;;;;;5.37;2.00;;;;;;;;;;5031038;28;20171;-67
2023/05/10 15:15:16;;;;;;;3.30;2.10;;;;;;;;;;5030674;28;20190;-67
2023/05/10 15:17:43;;;;;;;9.70;2.20;;;;;;;;;;5030777;28;20570;-67